sensor_id;sensor_type;location;lat;lon;timestamp;temperature;humidity
26641;DHT22;14269;47.358;0.724;2022-07-29T00:02:08;23.0;43.0
26641;DHT22;14269;47.358;0.724;2022-07-29T00:04:40;23.0;42.0
26641;DHT22;14269;47.358;0.724;2022-07-29T00:07:11;23.0;40.0
26641;DHT22;14269;47.358;0.724;2022-07-29T00:09:43;23.0;43.0
26641;DHT22;14269;47.358;0.724;2022-07-29T00:12:15;23.0;43.0
26641;DHT22;14269;47.358;0.724;2022-07-29T00:14:46;23.0;41.0
26641;DHT22;14269;47.358;0.724;2022-07-29T00:17:18;22.0;41.0
26641;DHT22;14269;47.358;0.724;2022-07-29T00:19:50;22.0;42.0
26641;DHT22;14269;47.358;0.724;2022-07-29T00:22:21;22.0;42.0
26641;DHT22;14269;47.358;0.724;2022-07-29T00:24:53;22.0;42.0
26641;DHT22;14269;47.358;0.724;2022-07-29T00:27:25;22.0;43.0
26641;DHT22;14269;47.358;0.724;2022-07-29T00:29:56;22.0;44.0
26641;DHT22;14269;47.358;0.724;2022-07-29T00:32:28;23.0;44.0
26641;DHT22;14269;47.358;0.724;2022-07-29T00:36:04;23.0;44.0
26641;DHT22;14269;47.358;0.724;2022-07-29T00:38:45;23.0;44.0
26641;DHT22;14269;47.358;0.724;2022-07-29T00:41:24;23.0;44.0
26641;DHT22;14269;47.358;0.724;2022-07-29T00:43:55;23.0;44.0
26641;DHT22;14269;47.358;0.724;2022-07-29T00:46:27;23.0;43.0
26641;DHT22;14269;47.358;0.724;2022-07-29T00:48:59;23.0;43.0
26641;DHT22;14269;47.358;0.724;2022-07-29T00:51:31;23.0;43.0
26641;DHT22;14269;47.358;0.724;2022-07-29T00:54:02;23.0;44.0
26641;DHT22;14269;47.358;0.724;2022-07-29T00:56:34;23.0;43.0
26641;DHT22;14269;47.358;0.724;2022-07-29T00:59:05;23.0;43.0
26641;DHT22;14269;47.358;0.724;2022-07-29T01:01:37;23.0;44.0
26641;DHT22;14269;47.358;0.724;2022-07-29T01:04:09;23.0;44.0
26641;DHT22;14269;47.358;0.724;2022-07-29T01:06:40;23.0;44.0
26641;DHT22;14269;47.358;0.724;2022-07-29T01:09:12;23.0;43.0
26641;DHT22;14269;47.358;0.724;2022-07-29T01:11:54;23.0;43.0
26641;DHT22;14269;47.358;0.724;2022-07-29T01:14:26;23.0;44.0
26641;DHT22;14269;47.358;0.724;2022-07-29T01:17:02;23.0;43.0
26641;DHT22;14269;47.358;0.724;2022-07-29T01:19:48;23.0;44.0
26641;DHT22;14269;47.358;0.724;2022-07-29T01:22:29;23.0;41.0
26641;DHT22;14269;47.358;0.724;2022-07-29T01:25:12;23.0;42.0
26641;DHT22;14269;47.358;0.724;2022-07-29T01:28:08;23.0;41.0
26641;DHT22;14269;47.358;0.724;2022-07-29T01:30:46;23.0;41.0
26641;DHT22;14269;47.358;0.724;2022-07-29T01:34:01;22.0;42.0
26641;DHT22;14269;47.358;0.724;2022-07-29T01:36:43;22.0;42.0
26641;DHT22;14269;47.358;0.724;2022-07-29T01:39:26;23.0;43.0
26641;DHT22;14269;47.358;0.724;2022-07-29T01:42:14;23.0;42.0
26641;DHT22;14269;47.358;0.724;2022-07-29T01:44:58;23.0;42.0
26641;DHT22;14269;47.358;0.724;2022-07-29T01:47:40;23.0;42.0
26641;DHT22;14269;47.358;0.724;2022-07-29T01:50:25;23.0;42.0
26641;DHT22;14269;47.358;0.724;2022-07-29T01:53:03;23.0;43.0
26641;DHT22;14269;47.358;0.724;2022-07-29T01:55:44;23.0;43.0
26641;DHT22;14269;47.358;0.724;2022-07-29T01:58:24;23.0;43.0
26641;DHT22;14269;47.358;0.724;2022-07-29T02:01:06;23.0;43.0
26641;DHT22;14269;47.358;0.724;2022-07-29T02:03:47;23.0;43.0
26641;DHT22;14269;47.358;0.724;2022-07-29T02:06:22;23.0;44.0
26641;DHT22;14269;47.358;0.724;2022-07-29T02:09:02;23.0;43.0
26641;DHT22;14269;47.358;0.724;2022-07-29T02:11:47;23.0;43.0
26641;DHT22;14269;47.358;0.724;2022-07-29T02:14:26;23.0;43.0
26641;DHT22;14269;47.358;0.724;2022-07-29T02:17:07;23.0;43.0
26641;DHT22;14269;47.358;0.724;2022-07-29T02:19:48;23.0;43.0
26641;DHT22;14269;47.358;0.724;2022-07-29T02:22:20;23.0;43.0
26641;DHT22;14269;47.358;0.724;2022-07-29T02:24:51;23.0;42.0
26641;DHT22;14269;47.358;0.724;2022-07-29T02:27:34;22.0;44.0
26641;DHT22;14269;47.358;0.724;2022-07-29T02:30:15;21.0;46.0
26641;DHT22;14269;47.358;0.724;2022-07-29T02:32:48;21.0;46.0
26641;DHT22;14269;47.358;0.724;2022-07-29T02:35:29;22.0;45.0
26641;DHT22;14269;47.358;0.724;2022-07-29T02:39:05;22.0;45.0
26641;DHT22;14269;47.358;0.724;2022-07-29T02:41:46;22.0;45.0
26641;DHT22;14269;47.358;0.724;2022-07-29T02:44:25;22.0;45.0
26641;DHT22;14269;47.358;0.724;2022-07-29T02:47:13;22.0;45.0
26641;DHT22;14269;47.358;0.724;2022-07-29T02:49:53;23.0;45.0
26641;DHT22;14269;47.358;0.724;2022-07-29T02:52:34;23.0;45.0
26641;DHT22;14269;47.358;0.724;2022-07-29T02:55:16;23.0;45.0
26641;DHT22;14269;47.358;0.724;2022-07-29T02:57:59;23.0;45.0
26641;DHT22;14269;47.358;0.724;2022-07-29T03:00:37;23.0;45.0
26641;DHT22;14269;47.358;0.724;2022-07-29T03:03:18;23.0;46.0
26641;DHT22;14269;47.358;0.724;2022-07-29T03:06:00;23.0;45.0
26641;DHT22;14269;47.358;0.724;2022-07-29T03:08:40;23.0;45.0
26641;DHT22;14269;47.358;0.724;2022-07-29T03:11:12;23.0;44.0
26641;DHT22;14269;47.358;0.724;2022-07-29T03:13:43;22.0;44.0
26641;DHT22;14269;47.358;0.724;2022-07-29T03:16:17;22.0;44.0
26641;DHT22;14269;47.358;0.724;2022-07-29T03:18:56;22.0;45.0
26641;DHT22;14269;47.358;0.724;2022-07-29T03:21:28;22.0;47.0
26641;DHT22;14269;47.358;0.724;2022-07-29T03:24:00;21.0;48.0
26641;DHT22;14269;47.358;0.724;2022-07-29T03:26:31;21.0;49.0
26641;DHT22;14269;47.358;0.724;2022-07-29T03:29:03;22.0;48.0
26641;DHT22;14269;47.358;0.724;2022-07-29T03:31:34;21.0;49.0
26641;DHT22;14269;47.358;0.724;2022-07-29T03:34:06;21.0;50.0
26641;DHT22;14269;47.358;0.724;2022-07-29T03:36:38;22.0;49.0
26641;DHT22;14269;47.358;0.724;2022-07-29T03:39:10;22.0;48.0
26641;DHT22;14269;47.358;0.724;2022-07-29T03:41:54;22.0;48.0
26641;DHT22;14269;47.358;0.724;2022-07-29T03:44:34;22.0;50.0
26641;DHT22;14269;47.358;0.724;2022-07-29T03:47:17;22.0;49.0
26641;DHT22;14269;47.358;0.724;2022-07-29T03:50:00;22.0;50.0
26641;DHT22;14269;47.358;0.724;2022-07-29T03:52:38;22.0;49.0
26641;DHT22;14269;47.358;0.724;2022-07-29T03:55:10;23.0;49.0
26641;DHT22;14269;47.358;0.724;2022-07-29T03:57:42;23.0;49.0
26641;DHT22;14269;47.358;0.724;2022-07-29T04:00:24;22.0;50.0
26641;DHT22;14269;47.358;0.724;2022-07-29T04:03:05;23.0;49.0
26641;DHT22;14269;47.358;0.724;2022-07-29T04:05:37;22.0;50.0
26641;DHT22;14269;47.358;0.724;2022-07-29T04:08:08;23.0;50.0
26641;DHT22;14269;47.358;0.724;2022-07-29T04:10:40;23.0;50.0
26641;DHT22;14269;47.358;0.724;2022-07-29T04:13:12;23.0;50.0
26641;DHT22;14269;47.358;0.724;2022-07-29T04:15:43;23.0;50.0
26641;DHT22;14269;47.358;0.724;2022-07-29T04:18:15;23.0;50.0
26641;DHT22;14269;47.358;0.724;2022-07-29T04:20:47;23.0;51.0
26641;DHT22;14269;47.358;0.724;2022-07-29T04:23:18;23.0;51.0
26641;DHT22;14269;47.358;0.724;2022-07-29T04:25:50;23.0;51.0
26641;DHT22;14269;47.358;0.724;2022-07-29T04:28:21;23.0;53.0
26641;DHT22;14269;47.358;0.724;2022-07-29T04:30:53;22.0;53.0
26641;DHT22;14269;47.358;0.724;2022-07-29T04:33:25;22.0;53.0
26641;DHT22;14269;47.358;0.724;2022-07-29T04:35:57;23.0;53.0
26641;DHT22;14269;47.358;0.724;2022-07-29T04:38:28;23.0;53.0
26641;DHT22;14269;47.358;0.724;2022-07-29T04:41:00;23.0;53.0
26641;DHT22;14269;47.358;0.724;2022-07-29T04:43:32;23.0;53.0
26641;DHT22;14269;47.358;0.724;2022-07-29T04:46:03;23.0;54.0
26641;DHT22;14269;47.358;0.724;2022-07-29T04:48:35;23.0;54.0
26641;DHT22;14269;47.358;0.724;2022-07-29T04:51:06;23.0;54.0
26641;DHT22;14269;47.358;0.724;2022-07-29T04:53:38;23.0;54.0
26641;DHT22;14269;47.358;0.724;2022-07-29T04:56:10;23.0;54.0
26641;DHT22;14269;47.358;0.724;2022-07-29T04:58:41;22.0;54.0
26641;DHT22;14269;47.358;0.724;2022-07-29T05:01:14;23.0;53.0
26641;DHT22;14269;47.358;0.724;2022-07-29T05:03:45;23.0;53.0
26641;DHT22;14269;47.358;0.724;2022-07-29T05:06:16;23.0;53.0
26641;DHT22;14269;47.358;0.724;2022-07-29T05:08:48;23.0;54.0
26641;DHT22;14269;47.358;0.724;2022-07-29T05:11:20;22.0;57.0
26641;DHT22;14269;47.358;0.724;2022-07-29T05:13:51;22.0;55.0
26641;DHT22;14269;47.358;0.724;2022-07-29T05:16:23;23.0;55.0
26641;DHT22;14269;47.358;0.724;2022-07-29T05:18:54;23.0;56.0
26641;DHT22;14269;47.358;0.724;2022-07-29T05:21:26;22.0;56.0
26641;DHT22;14269;47.358;0.724;2022-07-29T05:23:58;22.0;56.0
26641;DHT22;14269;47.358;0.724;2022-07-29T05:26:29;22.0;56.0
26641;DHT22;14269;47.358;0.724;2022-07-29T05:29:01;22.0;56.0
26641;DHT22;14269;47.358;0.724;2022-07-29T05:31:33;22.0;56.0
26641;DHT22;14269;47.358;0.724;2022-07-29T05:34:04;23.0;55.0
26641;DHT22;14269;47.358;0.724;2022-07-29T05:36:36;22.0;56.0
26641;DHT22;14269;47.358;0.724;2022-07-29T05:39:08;22.0;56.0
26641;DHT22;14269;47.358;0.724;2022-07-29T05:41:40;22.0;56.0
26641;DHT22;14269;47.358;0.724;2022-07-29T05:44:13;22.0;56.0
26641;DHT22;14269;47.358;0.724;2022-07-29T05:46:53;22.0;55.0
26641;DHT22;14269;47.358;0.724;2022-07-29T05:49:24;22.0;58.0
26641;DHT22;14269;47.358;0.724;2022-07-29T05:51:56;22.0;57.0
26641;DHT22;14269;47.358;0.724;2022-07-29T05:54:28;22.0;56.0
26641;DHT22;14269;47.358;0.724;2022-07-29T05:56:59;22.0;56.0
26641;DHT22;14269;47.358;0.724;2022-07-29T05:59:31;22.0;55.0
26641;DHT22;14269;47.358;0.724;2022-07-29T06:02:05;22.0;55.0
26641;DHT22;14269;47.358;0.724;2022-07-29T06:04:44;23.0;55.0
26641;DHT22;14269;47.358;0.724;2022-07-29T06:07:16;22.0;56.0
26641;DHT22;14269;47.358;0.724;2022-07-29T06:09:48;22.0;56.0
26641;DHT22;14269;47.358;0.724;2022-07-29T06:12:19;22.0;57.0
26641;DHT22;14269;47.358;0.724;2022-07-29T06:14:51;22.0;56.0
26641;DHT22;14269;47.358;0.724;2022-07-29T06:17:22;22.0;55.0
26641;DHT22;14269;47.358;0.724;2022-07-29T06:19:54;22.0;55.0
26641;DHT22;14269;47.358;0.724;2022-07-29T06:22:26;22.0;55.0
26641;DHT22;14269;47.358;0.724;2022-07-29T06:24:57;22.0;55.0
26641;DHT22;14269;47.358;0.724;2022-07-29T06:27:29;22.0;55.0
26641;DHT22;14269;47.358;0.724;2022-07-29T06:30:02;22.0;55.0
26641;DHT22;14269;47.358;0.724;2022-07-29T06:32:42;21.0;58.0
26641;DHT22;14269;47.358;0.724;2022-07-29T06:35:14;21.0;59.0
26641;DHT22;14269;47.358;0.724;2022-07-29T06:37:46;22.0;58.0
26641;DHT22;14269;47.358;0.724;2022-07-29T06:41:23;22.0;57.0
26641;DHT22;14269;47.358;0.724;2022-07-29T06:44:00;22.0;55.0
26641;DHT22;14269;47.358;0.724;2022-07-29T06:46:32;22.0;55.0
26641;DHT22;14269;47.358;0.724;2022-07-29T06:49:03;22.0;56.0
26641;DHT22;14269;47.358;0.724;2022-07-29T06:51:35;22.0;55.0
26641;DHT22;14269;47.358;0.724;2022-07-29T06:54:06;22.0;54.0
26641;DHT22;14269;47.358;0.724;2022-07-29T06:56:41;22.0;54.0
26641;DHT22;14269;47.358;0.724;2022-07-29T06:59:20;22.0;54.0
26641;DHT22;14269;47.358;0.724;2022-07-29T07:01:52;22.0;54.0
26641;DHT22;14269;47.358;0.724;2022-07-29T07:04:23;22.0;54.0
26641;DHT22;14269;47.358;0.724;2022-07-29T07:06:55;22.0;54.0
26641;DHT22;14269;47.358;0.724;2022-07-29T07:09:26;22.0;55.0
26641;DHT22;14269;47.358;0.724;2022-07-29T07:11:58;22.0;55.0
26641;DHT22;14269;47.358;0.724;2022-07-29T07:14:30;22.0;56.0
26641;DHT22;14269;47.358;0.724;2022-07-29T07:17:03;21.0;58.0
26641;DHT22;14269;47.358;0.724;2022-07-29T07:19:45;22.0;58.0
26641;DHT22;14269;47.358;0.724;2022-07-29T07:22:25;21.0;59.0
26641;DHT22;14269;47.358;0.724;2022-07-29T07:24:57;21.0;59.0
26641;DHT22;14269;47.358;0.724;2022-07-29T07:27:29;21.0;59.0
26641;DHT22;14269;47.358;0.724;2022-07-29T07:30:00;21.0;60.0
26641;DHT22;14269;47.358;0.724;2022-07-29T07:32:32;21.0;63.0
26641;DHT22;14269;47.358;0.724;2022-07-29T07:35:04;20.0;65.0
26641;DHT22;14269;47.358;0.724;2022-07-29T07:37:45;21.0;63.0
26641;DHT22;14269;47.358;0.724;2022-07-29T07:40:17;21.0;62.0
26641;DHT22;14269;47.358;0.724;2022-07-29T07:42:48;21.0;62.0
26641;DHT22;14269;47.358;0.724;2022-07-29T07:45:20;21.0;61.0
26641;DHT22;14269;47.358;0.724;2022-07-29T07:47:51;21.0;60.0
26641;DHT22;14269;47.358;0.724;2022-07-29T07:50:23;21.0;61.0
26641;DHT22;14269;47.358;0.724;2022-07-29T07:52:57;22.0;60.0
26641;DHT22;14269;47.358;0.724;2022-07-29T07:55:39;22.0;60.0
26641;DHT22;14269;47.358;0.724;2022-07-29T07:58:18;22.0;59.0
26641;DHT22;14269;47.358;0.724;2022-07-29T08:00:50;22.0;58.0
26641;DHT22;14269;47.358;0.724;2022-07-29T08:03:22;22.0;57.0
26641;DHT22;14269;47.358;0.724;2022-07-29T08:05:54;22.0;57.0
26641;DHT22;14269;47.358;0.724;2022-07-29T08:08:25;22.0;58.0
26641;DHT22;14269;47.358;0.724;2022-07-29T08:10:57;22.0;58.0
26641;DHT22;14269;47.358;0.724;2022-07-29T08:13:30;22.0;60.0
26641;DHT22;14269;47.358;0.724;2022-07-29T08:16:12;22.0;60.0
26641;DHT22;14269;47.358;0.724;2022-07-29T08:18:56;22.0;60.0
26641;DHT22;14269;47.358;0.724;2022-07-29T08:21:34;22.0;61.0
26641;DHT22;14269;47.358;0.724;2022-07-29T08:25:10;22.0;60.0
26641;DHT22;14269;47.358;0.724;2022-07-29T08:27:47;22.0;61.0
26641;DHT22;14269;47.358;0.724;2022-07-29T08:30:19;22.0;61.0
26641;DHT22;14269;47.358;0.724;2022-07-29T08:32:53;22.0;62.0
26641;DHT22;14269;47.358;0.724;2022-07-29T08:35:33;22.0;61.0
26641;DHT22;14269;47.358;0.724;2022-07-29T08:38:04;22.0;60.0
26641;DHT22;14269;47.358;0.724;2022-07-29T08:40:36;23.0;60.0
26641;DHT22;14269;47.358;0.724;2022-07-29T08:43:08;23.0;59.0
26641;DHT22;14269;47.358;0.724;2022-07-29T08:45:43;23.0;60.0
26641;DHT22;14269;47.358;0.724;2022-07-29T08:48:22;23.0;60.0
26641;DHT22;14269;47.358;0.724;2022-07-29T08:51:03;23.0;60.0
26641;DHT22;14269;47.358;0.724;2022-07-29T08:53:48;23.0;59.0
26641;DHT22;14269;47.358;0.724;2022-07-29T08:56:27;23.0;58.0
26641;DHT22;14269;47.358;0.724;2022-07-29T08:58:58;23.0;57.0
26641;DHT22;14269;47.358;0.724;2022-07-29T09:01:41;23.0;58.0
26641;DHT22;14269;47.358;0.724;2022-07-29T09:04:24;23.0;59.0
26641;DHT22;14269;47.358;0.724;2022-07-29T09:07:05;23.0;60.0
26641;DHT22;14269;47.358;0.724;2022-07-29T09:09:45;23.0;59.0
26641;DHT22;14269;47.358;0.724;2022-07-29T09:12:17;23.0;57.0
26641;DHT22;14269;47.358;0.724;2022-07-29T09:14:48;23.0;57.0
26641;DHT22;14269;47.358;0.724;2022-07-29T09:17:39;23.0;57.0
26641;DHT22;14269;47.358;0.724;2022-07-29T09:20:13;23.0;58.0
26641;DHT22;14269;47.358;0.724;2022-07-29T09:22:53;23.0;58.0
26641;DHT22;14269;47.358;0.724;2022-07-29T09:25:33;23.0;59.0
26641;DHT22;14269;47.358;0.724;2022-07-29T09:28:08;23.0;58.0
26641;DHT22;14269;47.358;0.724;2022-07-29T09:30:51;23.0;57.0
26641;DHT22;14269;47.358;0.724;2022-07-29T09:33:32;24.0;56.0
26641;DHT22;14269;47.358;0.724;2022-07-29T09:36:12;24.0;58.0
26641;DHT22;14269;47.358;0.724;2022-07-29T09:38:57;24.0;58.0
26641;DHT22;14269;47.358;0.724;2022-07-29T09:41:53;24.0;59.0
26641;DHT22;14269;47.358;0.724;2022-07-29T09:44:40;24.0;58.0
26641;DHT22;14269;47.358;0.724;2022-07-29T09:47:21;24.0;57.0
26641;DHT22;14269;47.358;0.724;2022-07-29T09:50:01;24.0;57.0
26641;DHT22;14269;47.358;0.724;2022-07-29T09:52:44;24.0;55.0
26641;DHT22;14269;47.358;0.724;2022-07-29T09:55:25;24.0;54.0
26641;DHT22;14269;47.358;0.724;2022-07-29T09:58:14;24.0;52.0
26641;DHT22;14269;47.358;0.724;2022-07-29T10:00:50;25.0;51.0
26641;DHT22;14269;47.358;0.724;2022-07-29T10:03:30;25.0;51.0
26641;DHT22;14269;47.358;0.724;2022-07-29T10:06:10;25.0;51.0
26641;DHT22;14269;47.358;0.724;2022-07-29T10:08:43;25.0;51.0
26641;DHT22;14269;47.358;0.724;2022-07-29T10:11:16;25.0;52.0
26641;DHT22;14269;47.358;0.724;2022-07-29T10:13:57;25.0;52.0
26641;DHT22;14269;47.358;0.724;2022-07-29T10:16:32;25.0;51.0
26641;DHT22;14269;47.358;0.724;2022-07-29T10:19:10;25.0;51.0
26641;DHT22;14269;47.358;0.724;2022-07-29T10:21:43;25.0;51.0
26641;DHT22;14269;47.358;0.724;2022-07-29T10:24:25;25.0;50.0
26641;DHT22;14269;47.358;0.724;2022-07-29T10:27:07;25.0;50.0
26641;DHT22;14269;47.358;0.724;2022-07-29T10:29:47;25.0;50.0
26641;DHT22;14269;47.358;0.724;2022-07-29T10:32:29;25.0;50.0
26641;DHT22;14269;47.358;0.724;2022-07-29T10:35:18;25.0;50.0
26641;DHT22;14269;47.358;0.724;2022-07-29T10:39:08;25.0;49.0
26641;DHT22;14269;47.358;0.724;2022-07-29T10:41:59;25.0;49.0
26641;DHT22;14269;47.358;0.724;2022-07-29T10:44:40;25.0;50.0
26641;DHT22;14269;47.358;0.724;2022-07-29T10:47:21;25.0;50.0
26641;DHT22;14269;47.358;0.724;2022-07-29T10:50:02;25.0;49.0
26641;DHT22;14269;47.358;0.724;2022-07-29T10:52:58;25.0;49.0
26641;DHT22;14269;47.358;0.724;2022-07-29T10:55:37;25.0;49.0
26641;DHT22;14269;47.358;0.724;2022-07-29T10:58:17;25.0;49.0
26641;DHT22;14269;47.358;0.724;2022-07-29T11:00:57;25.0;49.0
26641;DHT22;14269;47.358;0.724;2022-07-29T11:03:59;25.0;49.0
26641;DHT22;14269;47.358;0.724;2022-07-29T11:07:06;25.0;49.0
26641;DHT22;14269;47.358;0.724;2022-07-29T11:09:47;25.0;48.0
26641;DHT22;14269;47.358;0.724;2022-07-29T11:12:55;25.0;47.0
26641;DHT22;14269;47.358;0.724;2022-07-29T11:15:27;25.0;47.0
26641;DHT22;14269;47.358;0.724;2022-07-29T11:18:05;25.0;46.0
26641;DHT22;14269;47.358;0.724;2022-07-29T11:20:42;26.0;44.0
26641;DHT22;14269;47.358;0.724;2022-07-29T11:23:24;26.0;44.0
26641;DHT22;14269;47.358;0.724;2022-07-29T11:26:20;26.0;44.0
26641;DHT22;14269;47.358;0.724;2022-07-29T11:29:02;26.0;44.0
26641;DHT22;14269;47.358;0.724;2022-07-29T11:31:40;27.0;44.0
26641;DHT22;14269;47.358;0.724;2022-07-29T11:34:22;27.0;43.0
26641;DHT22;14269;47.358;0.724;2022-07-29T11:37:32;26.0;42.0
26641;DHT22;14269;47.358;0.724;2022-07-29T11:40:16;26.0;43.0
26641;DHT22;14269;47.358;0.724;2022-07-29T11:42:55;27.0;43.0
26641;DHT22;14269;47.358;0.724;2022-07-29T11:45:45;27.0;42.0
26641;DHT22;14269;47.358;0.724;2022-07-29T11:48:19;26.0;42.0
26641;DHT22;14269;47.358;0.724;2022-07-29T11:50:50;26.0;41.0
26641;DHT22;14269;47.358;0.724;2022-07-29T11:53:21;27.0;42.0
26641;DHT22;14269;47.358;0.724;2022-07-29T11:55:55;26.0;41.0
26641;DHT22;14269;47.358;0.724;2022-07-29T11:58:35;27.0;41.0
26641;DHT22;14269;47.358;0.724;2022-07-29T12:01:17;27.0;40.0
26641;DHT22;14269;47.358;0.724;2022-07-29T12:04:02;27.0;41.0
26641;DHT22;14269;47.358;0.724;2022-07-29T12:06:40;27.0;42.0
26641;DHT22;14269;47.358;0.724;2022-07-29T12:09:12;27.0;40.0
26641;DHT22;14269;47.358;0.724;2022-07-29T12:11:43;27.0;39.0
26641;DHT22;14269;47.358;0.724;2022-07-29T12:14:32;27.0;39.0
26641;DHT22;14269;47.358;0.724;2022-07-29T12:17:07;27.0;40.0
26641;DHT22;14269;47.358;0.724;2022-07-29T12:20:00;27.0;39.0
26641;DHT22;14269;47.358;0.724;2022-07-29T12:22:41;27.0;38.0
26641;DHT22;14269;47.358;0.724;2022-07-29T12:25:23;27.0;38.0
26641;DHT22;14269;47.358;0.724;2022-07-29T12:28:05;27.0;37.0
26641;DHT22;14269;47.358;0.724;2022-07-29T12:30:49;27.0;38.0
26641;DHT22;14269;47.358;0.724;2022-07-29T12:33:28;27.0;38.0
26641;DHT22;14269;47.358;0.724;2022-07-29T12:36:09;27.0;38.0
26641;DHT22;14269;47.358;0.724;2022-07-29T12:38:41;27.0;37.0
26641;DHT22;14269;47.358;0.724;2022-07-29T12:41:13;27.0;36.0
26641;DHT22;14269;47.358;0.724;2022-07-29T12:43:52;27.0;36.0
26641;DHT22;14269;47.358;0.724;2022-07-29T12:46:26;27.0;36.0
26641;DHT22;14269;47.358;0.724;2022-07-29T12:48:58;27.0;37.0
26641;DHT22;14269;47.358;0.724;2022-07-29T12:51:31;27.0;36.0
26641;DHT22;14269;47.358;0.724;2022-07-29T12:54:13;28.0;35.0
26641;DHT22;14269;47.358;0.724;2022-07-29T12:56:59;27.0;35.0
26641;DHT22;14269;47.358;0.724;2022-07-29T12:59:34;27.0;34.0
26641;DHT22;14269;47.358;0.724;2022-07-29T13:02:06;27.0;35.0
26641;DHT22;14269;47.358;0.724;2022-07-29T13:04:38;27.0;35.0
26641;DHT22;14269;47.358;0.724;2022-07-29T13:07:11;28.0;34.0
26641;DHT22;14269;47.358;0.724;2022-07-29T13:09:51;28.0;34.0
26641;DHT22;14269;47.358;0.724;2022-07-29T13:12:23;28.0;33.0
26641;DHT22;14269;47.358;0.724;2022-07-29T13:14:54;28.0;33.0
26641;DHT22;14269;47.358;0.724;2022-07-29T13:17:27;28.0;33.0
26641;DHT22;14269;47.358;0.724;2022-07-29T13:20:12;28.0;33.0
26641;DHT22;14269;47.358;0.724;2022-07-29T13:22:50;28.0;33.0
26641;DHT22;14269;47.358;0.724;2022-07-29T13:25:25;28.0;33.0
26641;DHT22;14269;47.358;0.724;2022-07-29T13:28:03;28.0;32.0
26641;DHT22;14269;47.358;0.724;2022-07-29T13:30:35;28.0;33.0
26641;DHT22;14269;47.358;0.724;2022-07-29T13:33:06;28.0;31.0
26641;DHT22;14269;47.358;0.724;2022-07-29T13:35:38;28.0;31.0
26641;DHT22;14269;47.358;0.724;2022-07-29T13:38:10;28.0;31.0
26641;DHT22;14269;47.358;0.724;2022-07-29T13:40:41;28.0;31.0
26641;DHT22;14269;47.358;0.724;2022-07-29T13:43:13;28.0;31.0
26641;DHT22;14269;47.358;0.724;2022-07-29T13:45:45;28.0;31.0
26641;DHT22;14269;47.358;0.724;2022-07-29T13:48:16;28.0;31.0
26641;DHT22;14269;47.358;0.724;2022-07-29T13:50:48;29.0;31.0
26641;DHT22;14269;47.358;0.724;2022-07-29T13:53:20;29.0;30.0
26641;DHT22;14269;47.358;0.724;2022-07-29T13:55:51;29.0;30.0
26641;DHT22;14269;47.358;0.724;2022-07-29T13:58:23;28.0;30.0
26641;DHT22;14269;47.358;0.724;2022-07-29T14:00:55;28.0;29.0
26641;DHT22;14269;47.358;0.724;2022-07-29T14:03:40;28.0;29.0
26641;DHT22;14269;47.358;0.724;2022-07-29T14:06:19;28.0;30.0
26641;DHT22;14269;47.358;0.724;2022-07-29T14:08:50;28.0;30.0
26641;DHT22;14269;47.358;0.724;2022-07-29T14:11:21;28.0;30.0
26641;DHT22;14269;47.358;0.724;2022-07-29T14:13:53;28.0;30.0
26641;DHT22;14269;47.358;0.724;2022-07-29T14:16:25;28.0;31.0
26641;DHT22;14269;47.358;0.724;2022-07-29T14:18:56;29.0;30.0
26641;DHT22;14269;47.358;0.724;2022-07-29T14:21:28;29.0;30.0
26641;DHT22;14269;47.358;0.724;2022-07-29T14:24:00;29.0;29.0
26641;DHT22;14269;47.358;0.724;2022-07-29T14:26:31;29.0;29.0
26641;DHT22;14269;47.358;0.724;2022-07-29T14:29:03;29.0;29.0
26641;DHT22;14269;47.358;0.724;2022-07-29T14:31:35;29.0;29.0
26641;DHT22;14269;47.358;0.724;2022-07-29T14:34:06;29.0;29.0
26641;DHT22;14269;47.358;0.724;2022-07-29T14:36:38;29.0;30.0
26641;DHT22;14269;47.358;0.724;2022-07-29T14:39:10;29.0;30.0
26641;DHT22;14269;47.358;0.724;2022-07-29T14:41:41;29.0;30.0
26641;DHT22;14269;47.358;0.724;2022-07-29T14:44:13;29.0;30.0
26641;DHT22;14269;47.358;0.724;2022-07-29T14:46:45;29.0;30.0
26641;DHT22;14269;47.358;0.724;2022-07-29T14:49:16;29.0;30.0
26641;DHT22;14269;47.358;0.724;2022-07-29T14:51:48;29.0;30.0
26641;DHT22;14269;47.358;0.724;2022-07-29T14:54:19;29.0;30.0
26641;DHT22;14269;47.358;0.724;2022-07-29T14:56:55;29.0;30.0
26641;DHT22;14269;47.358;0.724;2022-07-29T14:59:33;29.0;30.0
26641;DHT22;14269;47.358;0.724;2022-07-29T15:02:04;29.0;29.0
26641;DHT22;14269;47.358;0.724;2022-07-29T15:04:36;29.0;29.0
26641;DHT22;14269;47.358;0.724;2022-07-29T15:07:08;29.0;30.0
26641;DHT22;14269;47.358;0.724;2022-07-29T15:09:40;29.0;30.0
26641;DHT22;14269;47.358;0.724;2022-07-29T15:12:11;29.0;29.0
26641;DHT22;14269;47.358;0.724;2022-07-29T15:14:43;29.0;29.0
26641;DHT22;14269;47.358;0.724;2022-07-29T15:17:14;29.0;30.0
26641;DHT22;14269;47.358;0.724;2022-07-29T15:19:46;29.0;30.0
26641;DHT22;14269;47.358;0.724;2022-07-29T15:22:17;29.0;29.0
26641;DHT22;14269;47.358;0.724;2022-07-29T15:24:49;29.0;29.0
26641;DHT22;14269;47.358;0.724;2022-07-29T15:27:21;29.0;29.0
26641;DHT22;14269;47.358;0.724;2022-07-29T15:29:52;29.0;29.0
26641;DHT22;14269;47.358;0.724;2022-07-29T15:32:24;29.0;29.0
26641;DHT22;14269;47.358;0.724;2022-07-29T15:34:56;29.0;29.0
26641;DHT22;14269;47.358;0.724;2022-07-29T15:37:28;29.0;29.0
26641;DHT22;14269;47.358;0.724;2022-07-29T15:39:59;29.0;29.0
26641;DHT22;14269;47.358;0.724;2022-07-29T15:42:31;29.0;30.0
26641;DHT22;14269;47.358;0.724;2022-07-29T15:45:03;29.0;29.0
26641;DHT22;14269;47.358;0.724;2022-07-29T15:47:35;29.0;29.0
26641;DHT22;14269;47.358;0.724;2022-07-29T15:50:11;29.0;29.0
26641;DHT22;14269;47.358;0.724;2022-07-29T15:52:47;29.0;30.0
26641;DHT22;14269;47.358;0.724;2022-07-29T15:55:19;28.0;30.0
26641;DHT22;14269;47.358;0.724;2022-07-29T15:57:51;28.0;30.0
26641;DHT22;14269;47.358;0.724;2022-07-29T16:00:23;29.0;30.0
26641;DHT22;14269;47.358;0.724;2022-07-29T16:02:54;29.0;30.0
26641;DHT22;14269;47.358;0.724;2022-07-29T16:05:28;29.0;30.0
26641;DHT22;14269;47.358;0.724;2022-07-29T16:08:07;29.0;30.0
26641;DHT22;14269;47.358;0.724;2022-07-29T16:10:40;29.0;30.0
26641;DHT22;14269;47.358;0.724;2022-07-29T16:13:11;29.0;30.0
26641;DHT22;14269;47.358;0.724;2022-07-29T16:15:43;29.0;30.0
26641;DHT22;14269;47.358;0.724;2022-07-29T16:18:14;28.0;30.0
26641;DHT22;14269;47.358;0.724;2022-07-29T16:20:46;28.0;30.0
26641;DHT22;14269;47.358;0.724;2022-07-29T16:23:17;28.0;30.0
26641;DHT22;14269;47.358;0.724;2022-07-29T16:25:49;28.0;31.0
26641;DHT22;14269;47.358;0.724;2022-07-29T16:28:21;28.0;31.0
26641;DHT22;14269;47.358;0.724;2022-07-29T16:30:52;28.0;31.0
26641;DHT22;14269;47.358;0.724;2022-07-29T16:33:24;28.0;31.0
26641;DHT22;14269;47.358;0.724;2022-07-29T16:35:55;28.0;30.0
26641;DHT22;14269;47.358;0.724;2022-07-29T16:38:27;28.0;31.0
26641;DHT22;14269;47.358;0.724;2022-07-29T16:40:59;28.0;31.0
26641;DHT22;14269;47.358;0.724;2022-07-29T16:43:30;28.0;31.0
26641;DHT22;14269;47.358;0.724;2022-07-29T16:46:02;28.0;30.0
26641;DHT22;14269;47.358;0.724;2022-07-29T16:48:34;28.0;31.0
26641;DHT22;14269;47.358;0.724;2022-07-29T16:51:06;28.0;30.0
26641;DHT22;14269;47.358;0.724;2022-07-29T16:53:37;28.0;30.0
26641;DHT22;14269;47.358;0.724;2022-07-29T16:56:09;28.0;30.0
26641;DHT22;14269;47.358;0.724;2022-07-29T16:58:40;28.0;30.0
26641;DHT22;14269;47.358;0.724;2022-07-29T17:01:12;28.0;30.0
26641;DHT22;14269;47.358;0.724;2022-07-29T17:04:05;28.0;31.0